sensor_id;sensor_type;location;lat;lon;timestamp;P1;durP1;ratioP1;P2;durP2;ratioP2
52512;SDS011;38422;53.172;6.974;2023-03-29T00:01:52;3.97;;;1.45;;
52512;SDS011;38422;53.172;6.974;2023-03-29T00:04:18;4.35;;;1.70;;
52512;SDS011;38422;53.172;6.974;2023-03-29T00:06:46;4.30;;;1.67;;
52512;SDS011;38422;53.172;6.974;2023-03-29T00:09:14;3.20;;;1.88;;
52512;SDS011;38422;53.172;6.974;2023-03-29T00:11:40;3.42;;;1.80;;
52512;SDS011;38422;53.172;6.974;2023-03-29T00:14:06;3.58;;;1.73;;
52512;SDS011;38422;53.172;6.974;2023-03-29T00:16:32;3.72;;;1.73;;
52512;SDS011;38422;53.172;6.974;2023-03-29T00:18:58;5.30;;;1.90;;
52512;SDS011;38422;53.172;6.974;2023-03-29T00:21:24;3.08;;;1.77;;
52512;SDS011;38422;53.172;6.974;2023-03-29T00:23:49;4.78;;;1.73;;
52512;SDS011;38422;53.172;6.974;2023-03-29T00:26:15;5.20;;;2.00;;
52512;SDS011;38422;53.172;6.974;2023-03-29T00:28:41;3.15;;;1.80;;
52512;SDS011;38422;53.172;6.974;2023-03-29T00:31:11;3.63;;;1.80;;
52512;SDS011;38422;53.172;6.974;2023-03-29T00:33:38;4.28;;;1.90;;
52512;SDS011;38422;53.172;6.974;2023-03-29T00:36:04;4.43;;;2.03;;
52512;SDS011;38422;53.172;6.974;2023-03-29T00:38:31;4.20;;;1.90;;
52512;SDS011;38422;53.172;6.974;2023-03-29T00:40:57;3.70;;;1.70;;
52512;SDS011;38422;53.172;6.974;2023-03-29T00:43:23;3.30;;;1.90;;
52512;SDS011;38422;53.172;6.974;2023-03-29T00:45:49;5.97;;;1.70;;
52512;SDS011;38422;53.172;6.974;2023-03-29T00:48:16;7.00;;;2.10;;
52512;SDS011;38422;53.172;6.974;2023-03-29T00:50:50;3.30;;;1.80;;
52512;SDS011;38422;53.172;6.974;2023-03-29T00:53:22;4.70;;;1.98;;
52512;SDS011;38422;53.172;6.974;2023-03-29T00:56:22;4.82;;;2.25;;
52512;SDS011;38422;53.172;6.974;2023-03-29T00:59:08;4.15;;;1.77;;
52512;SDS011;38422;53.172;6.974;2023-03-29T01:01:47;4.25;;;2.22;;
52512;SDS011;38422;53.172;6.974;2023-03-29T01:09:47;3.80;;;2.15;;
52512;SDS011;38422;53.172;6.974;2023-03-29T01:12:20;3.38;;;1.95;;
52512;SDS011;38422;53.172;6.974;2023-03-29T01:14:51;4.65;;;2.20;;
52512;SDS011;38422;53.172;6.974;2023-03-29T01:17:22;4.28;;;1.90;;
52512;SDS011;38422;53.172;6.974;2023-03-29T01:19:51;3.80;;;2.28;;
52512;SDS011;38422;53.172;6.974;2023-03-29T01:27:54;4.00;;;2.03;;
52512;SDS011;38422;53.172;6.974;2023-03-29T01:30:36;4.97;;;2.33;;
52512;SDS011;38422;53.172;6.974;2023-03-29T01:41:06;3.47;;;2.20;;
52512;SDS011;38422;53.172;6.974;2023-03-29T01:46:25;5.43;;;2.70;;
52512;SDS011;38422;53.172;6.974;2023-03-29T01:49:02;4.40;;;2.40;;
52512;SDS011;38422;53.172;6.974;2023-03-29T01:51:38;5.00;;;2.65;;
52512;SDS011;38422;53.172;6.974;2023-03-29T01:54:30;4.28;;;2.58;;
52512;SDS011;38422;53.172;6.974;2023-03-29T01:57:00;4.05;;;2.33;;
52512;SDS011;38422;53.172;6.974;2023-03-29T01:59:29;6.00;;;2.70;;
52512;SDS011;38422;53.172;6.974;2023-03-29T02:01:58;4.88;;;2.60;;
52512;SDS011;38422;53.172;6.974;2023-03-29T02:04:36;4.85;;;2.30;;
52512;SDS011;38422;53.172;6.974;2023-03-29T02:07:05;4.72;;;2.50;;
52512;SDS011;38422;53.172;6.974;2023-03-29T02:09:33;7.43;;;2.88;;
52512;SDS011;38422;53.172;6.974;2023-03-29T02:12:02;4.90;;;2.58;;
52512;SDS011;38422;53.172;6.974;2023-03-29T02:14:29;4.80;;;2.73;;
52512;SDS011;38422;53.172;6.974;2023-03-29T02:16:54;4.03;;;2.63;;
52512;SDS011;38422;53.172;6.974;2023-03-29T02:19:21;5.88;;;2.60;;
52512;SDS011;38422;53.172;6.974;2023-03-29T02:24:16;4.28;;;2.72;;
52512;SDS011;38422;53.172;6.974;2023-03-29T02:26:44;4.38;;;2.47;;
52512;SDS011;38422;53.172;6.974;2023-03-29T02:29:10;6.32;;;3.00;;
52512;SDS011;38422;53.172;6.974;2023-03-29T02:31:43;5.30;;;2.92;;
52512;SDS011;38422;53.172;6.974;2023-03-29T02:34:20;6.35;;;2.75;;
52512;SDS011;38422;53.172;6.974;2023-03-29T02:37:11;5.22;;;2.80;;
52512;SDS011;38422;53.172;6.974;2023-03-29T02:39:42;4.88;;;2.92;;
52512;SDS011;38422;53.172;6.974;2023-03-29T02:42:08;4.32;;;2.63;;
52512;SDS011;38422;53.172;6.974;2023-03-29T02:44:36;6.00;;;3.20;;
52512;SDS011;38422;53.172;6.974;2023-03-29T02:47:06;5.05;;;2.75;;
52512;SDS011;38422;53.172;6.974;2023-03-29T02:49:37;5.90;;;3.22;;
52512;SDS011;38422;53.172;6.974;2023-03-29T02:52:05;4.32;;;2.67;;
52512;SDS011;38422;53.172;6.974;2023-03-29T02:54:35;7.05;;;3.13;;
52512;SDS011;38422;53.172;6.974;2023-03-29T02:57:07;5.47;;;2.70;;
52512;SDS011;38422;53.172;6.974;2023-03-29T02:59:33;6.93;;;3.22;;
52512;SDS011;38422;53.172;6.974;2023-03-29T03:01:59;4.18;;;2.80;;
52512;SDS011;38422;53.172;6.974;2023-03-29T03:04:25;7.53;;;3.38;;
52512;SDS011;38422;53.172;6.974;2023-03-29T03:06:51;5.63;;;3.30;;
52512;SDS011;38422;53.172;6.974;2023-03-29T03:09:17;6.78;;;3.17;;
52512;SDS011;38422;53.172;6.974;2023-03-29T03:11:43;6.07;;;3.35;;
52512;SDS011;38422;53.172;6.974;2023-03-29T03:14:08;7.75;;;3.42;;
52512;SDS011;38422;53.172;6.974;2023-03-29T03:16:34;6.05;;;3.47;;
52512;SDS011;38422;53.172;6.974;2023-03-29T03:19:01;8.23;;;3.92;;
52512;SDS011;38422;53.172;6.974;2023-03-29T03:21:27;6.25;;;3.70;;
52512;SDS011;38422;53.172;6.974;2023-03-29T03:23:53;7.63;;;4.30;;
52512;SDS011;38422;53.172;6.974;2023-03-29T03:26:19;6.75;;;3.88;;
52512;SDS011;38422;53.172;6.974;2023-03-29T03:28:47;9.18;;;4.38;;
52512;SDS011;38422;53.172;6.974;2023-03-29T03:31:13;8.45;;;4.43;;
52512;SDS011;38422;53.172;6.974;2023-03-29T03:33:39;6.45;;;4.78;;
52512;SDS011;38422;53.172;6.974;2023-03-29T03:36:06;8.55;;;5.18;;
52512;SDS011;38422;53.172;6.974;2023-03-29T03:38:34;8.07;;;4.93;;
52512;SDS011;38422;53.172;6.974;2023-03-29T03:41:00;8.10;;;5.22;;
52512;SDS011;38422;53.172;6.974;2023-03-29T03:43:26;10.52;;;5.65;;
52512;SDS011;38422;53.172;6.974;2023-03-29T03:45:52;10.03;;;5.63;;
52512;SDS011;38422;53.172;6.974;2023-03-29T03:48:19;8.57;;;5.72;;
52512;SDS011;38422;53.172;6.974;2023-03-29T03:50:47;9.82;;;6.10;;
52512;SDS011;38422;53.172;6.974;2023-03-29T03:53:13;10.52;;;6.40;;
52512;SDS011;38422;53.172;6.974;2023-03-29T03:55:39;10.27;;;6.20;;
52512;SDS011;38422;53.172;6.974;2023-03-29T03:58:05;9.75;;;6.07;;
52512;SDS011;38422;53.172;6.974;2023-03-29T04:00:32;10.32;;;6.90;;
52512;SDS011;38422;53.172;6.974;2023-03-29T04:02:58;12.32;;;7.00;;
52512;SDS011;38422;53.172;6.974;2023-03-29T04:05:23;11.50;;;7.25;;
52512;SDS011;38422;53.172;6.974;2023-03-29T04:07:49;12.30;;;7.53;;
52512;SDS011;38422;53.172;6.974;2023-03-29T04:10:16;11.38;;;7.35;;
52512;SDS011;38422;53.172;6.974;2023-03-29T04:12:42;12.80;;;7.13;;
52512;SDS011;38422;53.172;6.974;2023-03-29T04:15:08;11.75;;;6.80;;
52512;SDS011;38422;53.172;6.974;2023-03-29T04:17:34;11.23;;;7.30;;
52512;SDS011;38422;53.172;6.974;2023-03-29T04:20:00;11.55;;;7.53;;
52512;SDS011;38422;53.172;6.974;2023-03-29T04:22:36;11.60;;;7.50;;
52512;SDS011;38422;53.172;6.974;2023-03-29T04:25:02;11.60;;;7.82;;
52512;SDS011;38422;53.172;6.974;2023-03-29T04:27:29;12.18;;;7.55;;
52512;SDS011;38422;53.172;6.974;2023-03-29T04:29:55;11.48;;;7.97;;
52512;SDS011;38422;53.172;6.974;2023-03-29T04:32:21;11.75;;;7.93;;
52512;SDS011;38422;53.172;6.974;2023-03-29T04:34:47;11.55;;;8.13;;
52512;SDS011;38422;53.172;6.974;2023-03-29T04:37:12;11.93;;;7.32;;
52512;SDS011;38422;53.172;6.974;2023-03-29T04:39:38;12.10;;;7.72;;
52512;SDS011;38422;53.172;6.974;2023-03-29T04:42:04;14.20;;;7.78;;
52512;SDS011;38422;53.172;6.974;2023-03-29T04:44:30;12.02;;;8.02;;
52512;SDS011;38422;53.172;6.974;2023-03-29T04:46:59;11.07;;;7.50;;
52512;SDS011;38422;53.172;6.974;2023-03-29T04:49:25;12.52;;;7.60;;
52512;SDS011;38422;53.172;6.974;2023-03-29T04:51:51;11.82;;;7.93;;
52512;SDS011;38422;53.172;6.974;2023-03-29T04:54:17;11.50;;;7.78;;
52512;SDS011;38422;53.172;6.974;2023-03-29T04:56:43;12.75;;;7.43;;
52512;SDS011;38422;53.172;6.974;2023-03-29T04:59:08;13.18;;;7.63;;
52512;SDS011;38422;53.172;6.974;2023-03-29T05:01:34;11.48;;;7.70;;
52512;SDS011;38422;53.172;6.974;2023-03-29T05:04:00;12.07;;;7.78;;
52512;SDS011;38422;53.172;6.974;2023-03-29T05:06:26;13.35;;;8.40;;
52512;SDS011;38422;53.172;6.974;2023-03-29T05:08:53;12.07;;;8.40;;
52512;SDS011;38422;53.172;6.974;2023-03-29T05:11:19;12.75;;;7.90;;
52512;SDS011;38422;53.172;6.974;2023-03-29T05:13:45;11.98;;;8.02;;
52512;SDS011;38422;53.172;6.974;2023-03-29T05:16:11;11.82;;;8.25;;
52512;SDS011;38422;53.172;6.974;2023-03-29T05:18:37;11.82;;;7.65;;
52512;SDS011;38422;53.172;6.974;2023-03-29T05:21:02;11.95;;;8.23;;
52512;SDS011;38422;53.172;6.974;2023-03-29T05:23:28;13.38;;;8.15;;
52512;SDS011;38422;53.172;6.974;2023-03-29T05:25:54;11.52;;;7.75;;
52512;SDS011;38422;53.172;6.974;2023-03-29T05:28:20;13.98;;;8.68;;
52512;SDS011;38422;53.172;6.974;2023-03-29T05:30:46;13.18;;;8.23;;
52512;SDS011;38422;53.172;6.974;2023-03-29T05:33:22;10.50;;;7.47;;
52512;SDS011;38422;53.172;6.974;2023-03-29T05:35:48;11.48;;;7.68;;
52512;SDS011;38422;53.172;6.974;2023-03-29T05:38:23;14.27;;;8.45;;
52512;SDS011;38422;53.172;6.974;2023-03-29T05:40:49;12.50;;;8.13;;
52512;SDS011;38422;53.172;6.974;2023-03-29T05:43:16;12.15;;;7.88;;
52512;SDS011;38422;53.172;6.974;2023-03-29T05:45:42;11.05;;;8.15;;
52512;SDS011;38422;53.172;6.974;2023-03-29T05:48:08;11.30;;;8.30;;
52512;SDS011;38422;53.172;6.974;2023-03-29T05:50:33;12.55;;;8.00;;
52512;SDS011;38422;53.172;6.974;2023-03-29T05:53:01;12.18;;;8.35;;
52512;SDS011;38422;53.172;6.974;2023-03-29T05:55:27;10.68;;;8.27;;
52512;SDS011;38422;53.172;6.974;2023-03-29T05:57:53;13.00;;;8.27;;
52512;SDS011;38422;53.172;6.974;2023-03-29T06:00:19;11.10;;;7.93;;
52512;SDS011;38422;53.172;6.974;2023-03-29T06:02:50;11.52;;;7.78;;
52512;SDS011;38422;53.172;6.974;2023-03-29T06:05:22;13.07;;;8.23;;
52512;SDS011;38422;53.172;6.974;2023-03-29T06:07:49;14.50;;;8.27;;
52512;SDS011;38422;53.172;6.974;2023-03-29T06:10:16;10.90;;;7.93;;
52512;SDS011;38422;53.172;6.974;2023-03-29T06:12:42;12.50;;;8.13;;
52512;SDS011;38422;53.172;6.974;2023-03-29T06:15:09;12.65;;;8.40;;
52512;SDS011;38422;53.172;6.974;2023-03-29T06:17:35;12.27;;;8.23;;
52512;SDS011;38422;53.172;6.974;2023-03-29T06:20:01;12.27;;;8.35;;
52512;SDS011;38422;53.172;6.974;2023-03-29T06:22:30;11.38;;;8.18;;
52512;SDS011;38422;53.172;6.974;2023-03-29T06:24:56;10.75;;;8.48;;
52512;SDS011;38422;53.172;6.974;2023-03-29T06:27:22;12.50;;;8.15;;
52512;SDS011;38422;53.172;6.974;2023-03-29T06:29:48;12.88;;;8.45;;
52512;SDS011;38422;53.172;6.974;2023-03-29T06:32:13;11.90;;;8.73;;
52512;SDS011;38422;53.172;6.974;2023-03-29T06:34:40;12.88;;;9.15;;
52512;SDS011;38422;53.172;6.974;2023-03-29T06:37:05;14.90;;;8.77;;
52512;SDS011;38422;53.172;6.974;2023-03-29T06:39:31;12.65;;;8.75;;
52512;SDS011;38422;53.172;6.974;2023-03-29T06:41:57;12.02;;;8.60;;
52512;SDS011;38422;53.172;6.974;2023-03-29T06:44:22;11.73;;;8.70;;
52512;SDS011;38422;53.172;6.974;2023-03-29T06:46:49;13.15;;;8.63;;
52512;SDS011;38422;53.172;6.974;2023-03-29T06:49:15;14.95;;;9.20;;
52512;SDS011;38422;53.172;6.974;2023-03-29T06:51:41;13.80;;;9.30;;
52512;SDS011;38422;53.172;6.974;2023-03-29T06:54:06;11.35;;;8.85;;
52512;SDS011;38422;53.172;6.974;2023-03-29T06:56:32;12.32;;;9.25;;
52512;SDS011;38422;53.172;6.974;2023-03-29T06:58:58;13.43;;;9.50;;
52512;SDS011;38422;53.172;6.974;2023-03-29T07:01:23;15.45;;;8.68;;
52512;SDS011;38422;53.172;6.974;2023-03-29T07:03:49;13.32;;;9.10;;
52512;SDS011;38422;53.172;6.974;2023-03-29T07:06:15;12.93;;;8.77;;
52512;SDS011;38422;53.172;6.974;2023-03-29T07:08:44;14.02;;;9.35;;
52512;SDS011;38422;53.172;6.974;2023-03-29T07:11:15;12.23;;;9.32;;
52512;SDS011;38422;53.172;6.974;2023-03-29T07:13:43;11.95;;;9.25;;
52512;SDS011;38422;53.172;6.974;2023-03-29T07:16:09;12.50;;;8.77;;
52512;SDS011;38422;53.172;6.974;2023-03-29T07:18:39;11.00;;;8.32;;
52512;SDS011;38422;53.172;6.974;2023-03-29T07:21:06;12.90;;;8.75;;
52512;SDS011;38422;53.172;6.974;2023-03-29T07:23:32;14.23;;;9.02;;
52512;SDS011;38422;53.172;6.974;2023-03-29T07:25:58;17.52;;;9.43;;
52512;SDS011;38422;53.172;6.974;2023-03-29T07:28:25;14.63;;;9.43;;
52512;SDS011;38422;53.172;6.974;2023-03-29T07:30:51;13.90;;;8.98;;
52512;SDS011;38422;53.172;6.974;2023-03-29T07:33:16;13.65;;;9.18;;
52512;SDS011;38422;53.172;6.974;2023-03-29T07:35:42;15.05;;;9.32;;
52512;SDS011;38422;53.172;6.974;2023-03-29T07:38:11;13.48;;;8.90;;
52512;SDS011;38422;53.172;6.974;2023-03-29T07:40:39;11.45;;;8.50;;
52512;SDS011;38422;53.172;6.974;2023-03-29T07:43:05;14.23;;;9.45;;
52512;SDS011;38422;53.172;6.974;2023-03-29T07:45:33;14.05;;;8.73;;
52512;SDS011;38422;53.172;6.974;2023-03-29T07:47:59;13.60;;;9.13;;
52512;SDS011;38422;53.172;6.974;2023-03-29T07:50:25;12.85;;;9.05;;
52512;SDS011;38422;53.172;6.974;2023-03-29T07:52:51;11.55;;;8.60;;
52512;SDS011;38422;53.172;6.974;2023-03-29T07:55:17;12.40;;;8.75;;
52512;SDS011;38422;53.172;6.974;2023-03-29T07:57:43;12.98;;;8.57;;
52512;SDS011;38422;53.172;6.974;2023-03-29T08:00:10;13.77;;;8.38;;
52512;SDS011;38422;53.172;6.974;2023-03-29T08:02:43;13.05;;;8.43;;
52512;SDS011;38422;53.172;6.974;2023-03-29T08:05:17;13.30;;;8.43;;
52512;SDS011;38422;53.172;6.974;2023-03-29T08:07:44;11.70;;;8.15;;
52512;SDS011;38422;53.172;6.974;2023-03-29T08:10:12;12.32;;;8.50;;
52512;SDS011;38422;53.172;6.974;2023-03-29T08:12:40;10.88;;;8.00;;
52512;SDS011;38422;53.172;6.974;2023-03-29T08:15:06;10.77;;;6.70;;
52512;SDS011;38422;53.172;6.974;2023-03-29T08:17:32;10.88;;;7.13;;
52512;SDS011;38422;53.172;6.974;2023-03-29T08:19:59;10.73;;;6.82;;
52512;SDS011;38422;53.172;6.974;2023-03-29T08:22:25;10.75;;;6.82;;
52512;SDS011;38422;53.172;6.974;2023-03-29T08:24:52;9.90;;;7.22;;
52512;SDS011;38422;53.172;6.974;2023-03-29T08:27:17;10.77;;;6.70;;
52512;SDS011;38422;53.172;6.974;2023-03-29T08:29:43;11.68;;;6.85;;
52512;SDS011;38422;53.172;6.974;2023-03-29T08:32:09;10.00;;;6.30;;
52512;SDS011;38422;53.172;6.974;2023-03-29T08:34:35;9.43;;;6.45;;
52512;SDS011;38422;53.172;6.974;2023-03-29T08:37:01;9.80;;;6.63;;
52512;SDS011;38422;53.172;6.974;2023-03-29T08:39:28;9.25;;;6.25;;
52512;SDS011;38422;53.172;6.974;2023-03-29T08:50:09;9.52;;;6.45;;
52512;SDS011;38422;53.172;6.974;2023-03-29T08:52:37;11.25;;;7.72;;
52512;SDS011;38422;53.172;6.974;2023-03-29T08:55:30;11.52;;;7.72;;
52512;SDS011;38422;53.172;6.974;2023-03-29T08:58:00;8.88;;;6.50;;
52512;SDS011;38422;53.172;6.974;2023-03-29T09:00:38;9.20;;;6.47;;
52512;SDS011;38422;53.172;6.974;2023-03-29T09:03:08;11.50;;;7.03;;
52512;SDS011;38422;53.172;6.974;2023-03-29T09:06:02;8.95;;;6.15;;
52512;SDS011;38422;53.172;6.974;2023-03-29T09:08:30;8.70;;;5.90;;
52512;SDS011;38422;53.172;6.974;2023-03-29T09:19:50;8.90;;;5.35;;
52512;SDS011;38422;53.172;6.974;2023-03-29T09:27:49;9.68;;;6.18;;
52512;SDS011;38422;53.172;6.974;2023-03-29T09:30:42;8.65;;;5.60;;
52512;SDS011;38422;53.172;6.974;2023-03-29T09:33:24;8.00;;;5.47;;
52512;SDS011;38422;53.172;6.974;2023-03-29T09:35:53;8.93;;;5.20;;
52512;SDS011;38422;53.172;6.974;2023-03-29T09:38:36;7.78;;;5.15;;
52512;SDS011;38422;53.172;6.974;2023-03-29T09:41:28;8.85;;;5.40;;
52512;SDS011;38422;53.172;6.974;2023-03-29T09:43:59;9.60;;;5.40;;
52512;SDS011;38422;53.172;6.974;2023-03-29T09:49:28;9.40;;;5.95;;
52512;SDS011;38422;53.172;6.974;2023-03-29T09:52:00;9.60;;;5.45;;
52512;SDS011;38422;53.172;6.974;2023-03-29T09:54:30;8.43;;;5.47;;
52512;SDS011;38422;53.172;6.974;2023-03-29T09:56:57;11.63;;;6.15;;
52512;SDS011;38422;53.172;6.974;2023-03-29T09:59:24;10.27;;;6.10;;
52512;SDS011;38422;53.172;6.974;2023-03-29T10:01:50;11.32;;;7.93;;
52512;SDS011;38422;53.172;6.974;2023-03-29T10:04:15;12.90;;;9.50;;
52512;SDS011;38422;53.172;6.974;2023-03-29T10:06:48;11.00;;;6.65;;
52512;SDS011;38422;53.172;6.974;2023-03-29T10:09:17;9.98;;;6.35;;
52512;SDS011;38422;53.172;6.974;2023-03-29T10:11:48;11.52;;;6.70;;
52512;SDS011;38422;53.172;6.974;2023-03-29T10:14:32;10.85;;;6.55;;
52512;SDS011;38422;53.172;6.974;2023-03-29T10:17:20;11.38;;;6.97;;
52512;SDS011;38422;53.172;6.974;2023-03-29T10:19:48;11.23;;;6.10;;
52512;SDS011;38422;53.172;6.974;2023-03-29T10:22:23;12.10;;;6.78;;
52512;SDS011;38422;53.172;6.974;2023-03-29T10:24:56;9.55;;;5.93;;
52512;SDS011;38422;53.172;6.974;2023-03-29T10:27:26;12.50;;;6.47;;
52512;SDS011;38422;53.172;6.974;2023-03-29T10:29:53;10.23;;;6.38;;
52512;SDS011;38422;53.172;6.974;2023-03-29T10:32:32;10.80;;;7.38;;
52512;SDS011;38422;53.172;6.974;2023-03-29T10:37:46;12.15;;;7.07;;
52512;SDS011;38422;53.172;6.974;2023-03-29T10:40:24;13.38;;;7.05;;
52512;SDS011;38422;53.172;6.974;2023-03-29T10:45:43;10.43;;;6.70;;
52512;SDS011;38422;53.172;6.974;2023-03-29T10:48:14;9.88;;;6.45;;
52512;SDS011;38422;53.172;6.974;2023-03-29T10:50:40;11.38;;;6.63;;
52512;SDS011;38422;53.172;6.974;2023-03-29T10:53:14;10.32;;;6.03;;
52512;SDS011;38422;53.172;6.974;2023-03-29T10:55:51;9.18;;;6.15;;
52512;SDS011;38422;53.172;6.974;2023-03-29T10:58:35;8.43;;;5.63;;
52512;SDS011;38422;53.172;6.974;2023-03-29T11:01:03;10.25;;;6.05;;
52512;SDS011;38422;53.172;6.974;2023-03-29T11:03:34;10.05;;;6.45;;
52512;SDS011;38422;53.172;6.974;2023-03-29T11:08:55;13.38;;;8.00;;
52512;SDS011;38422;53.172;6.974;2023-03-29T11:20:12;12.13;;;6.88;;
52512;SDS011;38422;53.172;6.974;2023-03-29T11:28:32;10.80;;;6.63;;
52512;SDS011;38422;53.172;6.974;2023-03-29T11:33:54;10.68;;;6.97;;
52512;SDS011;38422;53.172;6.974;2023-03-29T11:36:42;10.38;;;6.90;;
52512;SDS011;38422;53.172;6.974;2023-03-29T11:39:29;8.65;;;5.93;;
52512;SDS011;38422;53.172;6.974;2023-03-29T11:42:16;11.75;;;7.15;;
52512;SDS011;38422;53.172;6.974;2023-03-29T11:44:47;9.20;;;6.43;;
52512;SDS011;38422;53.172;6.974;2023-03-29T11:47:18;10.18;;;6.07;;
52512;SDS011;38422;53.172;6.974;2023-03-29T11:49:53;10.70;;;6.55;;
52512;SDS011;38422;53.172;6.974;2023-03-29T11:52:26;8.20;;;6.18;;
52512;SDS011;38422;53.172;6.974;2023-03-29T11:54:57;9.52;;;5.97;;
52512;SDS011;38422;53.172;6.974;2023-03-29T11:57:33;10.48;;;6.28;;
52512;SDS011;38422;53.172;6.974;2023-03-29T12:00:37;8.82;;;5.82;;
52512;SDS011;38422;53.172;6.974;2023-03-29T12:03:12;9.40;;;6.20;;
52512;SDS011;38422;53.172;6.974;2023-03-29T12:06:11;9.70;;;6.38;;
52512;SDS011;38422;53.172;6.974;2023-03-29T12:08:45;11.25;;;6.70;;
52512;SDS011;38422;53.172;6.974;2023-03-29T12:11:29;10.38;;;6.30;;
52512;SDS011;38422;53.172;6.974;2023-03-29T12:16:34;10.75;;;6.35;;
52512;SDS011;38422;53.172;6.974;2023-03-29T12:19:18;9.52;;;6.80;;
52512;SDS011;38422;53.172;6.974;2023-03-29T12:21:49;9.77;;;6.07;;
52512;SDS011;38422;53.172;6.974;2023-03-29T12:24:18;8.30;;;5.97;;
52512;SDS011;38422;53.172;6.974;2023-03-29T12:29:17;8.82;;;5.90;;
52512;SDS011;38422;53.172;6.974;2023-03-29T12:32:05;7.05;;;5.30;;
52512;SDS011;38422;53.172;6.974;2023-03-29T12:39:59;8.05;;;5.40;;
52512;SDS011;38422;53.172;6.974;2023-03-29T12:42:42;9.18;;;5.32;;
52512;SDS011;38422;53.172;6.974;2023-03-29T12:45:37;7.65;;;4.75;;
52512;SDS011;38422;53.172;6.974;2023-03-29T12:48:30;8.23;;;5.40;;
52512;SDS011;38422;53.172;6.974;2023-03-29T12:51:03;9.02;;;4.95;;
52512;SDS011;38422;53.172;6.974;2023-03-29T12:53:39;6.35;;;4.53;;
52512;SDS011;38422;53.172;6.974;2023-03-29T12:56:33;6.75;;;4.57;;
52512;SDS011;38422;53.172;6.974;2023-03-29T12:59:25;6.20;;;4.60;;
52512;SDS011;38422;53.172;6.974;2023-03-29T13:02:02;6.50;;;4.50;;
52512;SDS011;38422;53.172;6.974;2023-03-29T13:14:48;6.35;;;4.70;;
52512;SDS011;38422;53.172;6.974;2023-03-29T13:20:32;5.78;;;3.40;;
52512;SDS011;38422;53.172;6.974;2023-03-29T13:28:33;6.72;;;4.65;;
52512;SDS011;38422;53.172;6.974;2023-03-29T13:31:31;7.57;;;4.40;;
52512;SDS011;38422;53.172;6.974;2023-03-29T13:34:28;7.10;;;4.47;;
52512;SDS011;38422;53.172;6.974;2023-03-29T13:43:00;7.28;;;4.10;;
52512;SDS011;38422;53.172;6.974;2023-03-29T13:45:44;6.32;;;3.80;;
52512;SDS011;38422;53.172;6.974;2023-03-29T13:50:56;5.03;;;3.50;;
52512;SDS011;38422;53.172;6.974;2023-03-29T13:53:36;6.30;;;3.38;;
52512;SDS011;38422;53.172;6.974;2023-03-29T13:56:09;5.38;;;3.40;;
52512;SDS011;38422;53.172;6.974;2023-03-29T13:59:17;8.15;;;4.03;;
52512;SDS011;38422;53.172;6.974;2023-03-29T14:01:42;7.50;;;3.72;;
52512;SDS011;38422;53.172;6.974;2023-03-29T14:04:28;6.35;;;3.55;;
52512;SDS011;38422;53.172;6.974;2023-03-29T14:06:59;5.55;;;3.78;;
52512;SDS011;38422;53.172;6.974;2023-03-29T14:09:28;5.23;;;3.33;;
52512;SDS011;38422;53.172;6.974;2023-03-29T14:11:59;6.75;;;3.60;;
52512;SDS011;38422;53.172;6.974;2023-03-29T14:14:26;7.53;;;4.05;;
52512;SDS011;38422;53.172;6.974;2023-03-29T14:16:54;7.28;;;3.90;;
52512;SDS011;38422;53.172;6.974;2023-03-29T14:19:23;5.70;;;3.60;;
52512;SDS011;38422;53.172;6.974;2023-03-29T14:21:56;7.00;;;3.70;;
52512;SDS011;38422;53.172;6.974;2023-03-29T14:24:32;6.45;;;3.65;;
52512;SDS011;38422;53.172;6.974;2023-03-29T14:27:02;6.30;;;4.20;;
52512;SDS011;38422;53.172;6.974;2023-03-29T14:29:30;6.32;;;3.85;;
52512;SDS011;38422;53.172;6.974;2023-03-29T14:34:32;6.18;;;3.70;;
52512;SDS011;38422;53.172;6.974;2023-03-29T14:36:58;6.22;;;3.88;;
52512;SDS011;38422;53.172;6.974;2023-03-29T14:39:24;7.70;;;4.05;;
52512;SDS011;38422;53.172;6.974;2023-03-29T14:41:51;7.70;;;4.25;;
52512;SDS011;38422;53.172;6.974;2023-03-29T14:44:22;7.65;;;4.25;;
52512;SDS011;38422;53.172;6.974;2023-03-29T14:46:53;5.80;;;4.05;;
52512;SDS011;38422;53.172;6.974;2023-03-29T14:49:19;7.05;;;4.45;;
52512;SDS011;38422;53.172;6.974;2023-03-29T14:51:47;6.35;;;4.25;;
52512;SDS011;38422;53.172;6.974;2023-03-29T14:56:44;6.30;;;4.15;;
52512;SDS011;38422;53.172;6.974;2023-03-29T14:59:24;5.97;;;4.03;;
52512;SDS011;38422;53.172;6.974;2023-03-29T15:01:52;8.20;;;4.38;;
52512;SDS011;38422;53.172;6.974;2023-03-29T15:04:18;6.53;;;4.55;;
52512;SDS011;38422;53.172;6.974;2023-03-29T15:06:45;7.80;;;5.05;;
52512;SDS011;38422;53.172;6.974;2023-03-29T15:09:23;6.25;;;4.22;;
52512;SDS011;38422;53.172;6.974;2023-03-29T15:11:58;6.28;;;4.80;;
52512;SDS011;38422;53.172;6.974;2023-03-29T15:14:30;6.15;;;4.78;;
52512;SDS011;38422;53.172;6.974;2023-03-29T15:17:03;7.53;;;4.97;;
52512;SDS011;38422;53.172;6.974;2023-03-29T15:19:33;8.32;;;5.35;;
52512;SDS011;38422;53.172;6.974;2023-03-29T15:22:03;8.88;;;4.95;;
52512;SDS011;38422;53.172;6.974;2023-03-29T15:24:35;8.05;;;5.07;;
52512;SDS011;38422;53.172;6.974;2023-03-29T15:27:13;6.95;;;5.10;;
52512;SDS011;38422;53.172;6.974;2023-03-29T15:29:41;6.50;;;5.00;;
52512;SDS011;38422;53.172;6.974;2023-03-29T15:32:08;7.90;;;5.00;;
52512;SDS011;38422;53.172;6.974;2023-03-29T15:34:35;6.40;;;4.97;;
52512;SDS011;38422;53.172;6.974;2023-03-29T15:37:02;6.68;;;4.75;;
52512;SDS011;38422;53.172;6.974;2023-03-29T15:39:36;7.78;;;5.20;;
52512;SDS011;38422;53.172;6.974;2023-03-29T15:42:07;8.02;;;5.30;;
52512;SDS011;38422;53.172;6.974;2023-03-29T15:44:34;8.07;;;5.60;;
52512;SDS011;38422;53.172;6.974;2023-03-29T15:47:07;7.43;;;5.05;;
52512;SDS011;38422;53.172;6.974;2023-03-29T15:49:34;9.18;;;5.30;;
52512;SDS011;38422;53.172;6.974;2023-03-29T15:52:00;7.45;;;5.07;;
52512;SDS011;38422;53.172;6.974;2023-03-29T15:54:26;7.97;;;5.55;;
52512;SDS011;38422;53.172;6.974;2023-03-29T15:56:53;6.55;;;5.15;;
52512;SDS011;38422;53.172;6.974;2023-03-29T15:59:23;8.20;;;5.65;;
52512;SDS011;38422;53.172;6.974;2023-03-29T16:01:49;7.40;;;5.38;;
52512;SDS011;38422;53.172;6.974;2023-03-29T16:04:18;8.25;;;5.90;;
52512;SDS011;38422;53.172;6.974;2023-03-29T16:06:46;7.07;;;5.82;;
52512;SDS011;38422;53.172;6.974;2023-03-29T16:09:14;8.05;;;5.70;;
52512;SDS011;38422;53.172;6.974;2023-03-29T16:11:41;8.32;;;6.22;;
52512;SDS011;38422;53.172;6.974;2023-03-29T16:16:42;12.13;;;6.80;;
52512;SDS011;38422;53.172;6.974;2023-03-29T16:19:08;8.40;;;6.07;;
52512;SDS011;38422;53.172;6.974;2023-03-29T16:21:33;8.50;;;6.68;;
52512;SDS011;38422;53.172;6.974;2023-03-29T16:24:01;9.10;;;6.88;;
52512;SDS011;38422;53.172;6.974;2023-03-29T16:26:27;12.27;;;6.55;;
52512;SDS011;38422;53.172;6.974;2023-03-29T16:28:54;10.20;;;6.13;;
52512;SDS011;38422;53.172;6.974;2023-03-29T16:31:22;9.02;;;6.70;;
52512;SDS011;38422;53.172;6.974;2023-03-29T16:33:51;8.90;;;6.22;;
52512;SDS011;38422;53.172;6.974;2023-03-29T16:36:25;8.00;;;6.07;;
52512;SDS011;38422;53.172;6.974;2023-03-29T16:38:52;8.82;;;6.07;;
52512;SDS011;38422;53.172;6.974;2023-03-29T16:41:21;8.55;;;5.80;;
52512;SDS011;38422;53.172;6.974;2023-03-29T16:43:47;9.23;;;5.97;;
52512;SDS011;38422;53.172;6.974;2023-03-29T16:46:13;8.48;;;5.63;;
52512;SDS011;38422;53.172;6.974;2023-03-29T16:48:39;9.77;;;5.95;;
52512;SDS011;38422;53.172;6.974;2023-03-29T16:51:06;7.78;;;5.43;;
52512;SDS011;38422;53.172;6.974;2023-03-29T16:53:32;8.80;;;5.10;;
52512;SDS011;38422;53.172;6.974;2023-03-29T16:55:58;6.22;;;5.22;;
52512;SDS011;38422;53.172;6.974;2023-03-29T16:58:24;6.22;;;5.32;;
52512;SDS011;38422;53.172;6.974;2023-03-29T17:00:51;6.73;;;5.17;;
52512;SDS011;38422;53.172;6.974;2023-03-29T17:03:18;7.50;;;5.50;;